sensor_id;sensor_type;location;lat;lon;timestamp;temperature;humidity
14236;DHT22;7202;50.718;7.072;2023-07-28T00:00:20;17.00;99.90
14236;DHT22;7202;50.718;7.072;2023-07-28T00:02:50;17.00;99.90
14236;DHT22;7202;50.718;7.072;2023-07-28T00:05:19;17.00;99.90
14236;DHT22;7202;50.718;7.072;2023-07-28T00:07:48;17.10;99.90
14236;DHT22;7202;50.718;7.072;2023-07-28T00:10:16;17.00;99.90
14236;DHT22;7202;50.718;7.072;2023-07-28T00:12:45;17.00;99.90
14236;DHT22;7202;50.718;7.072;2023-07-28T00:15:13;17.00;99.90
14236;DHT22;7202;50.718;7.072;2023-07-28T00:17:42;17.00;99.90
14236;DHT22;7202;50.718;7.072;2023-07-28T00:20:13;17.00;99.90
14236;DHT22;7202;50.718;7.072;2023-07-28T00:22:41;17.00;99.90
14236;DHT22;7202;50.718;7.072;2023-07-28T00:25:10;17.00;99.90
14236;DHT22;7202;50.718;7.072;2023-07-28T00:27:38;17.00;99.90
14236;DHT22;7202;50.718;7.072;2023-07-28T00:30:08;17.00;99.90
14236;DHT22;7202;50.718;7.072;2023-07-28T00:32:37;17.00;99.90
14236;DHT22;7202;50.718;7.072;2023-07-28T00:35:06;17.00;99.90
14236;DHT22;7202;50.718;7.072;2023-07-28T00:37:36;17.00;99.90
14236;DHT22;7202;50.718;7.072;2023-07-28T00:40:07;16.90;99.90
14236;DHT22;7202;50.718;7.072;2023-07-28T00:42:36;16.90;99.90
14236;DHT22;7202;50.718;7.072;2023-07-28T00:45:06;17.00;99.90
14236;DHT22;7202;50.718;7.072;2023-07-28T00:47:35;16.90;99.90
14236;DHT22;7202;50.718;7.072;2023-07-28T00:50:06;16.90;99.90
14236;DHT22;7202;50.718;7.072;2023-07-28T00:52:36;16.90;99.90
14236;DHT22;7202;50.718;7.072;2023-07-28T00:55:06;17.00;99.90
14236;DHT22;7202;50.718;7.072;2023-07-28T00:57:35;16.90;99.90
14236;DHT22;7202;50.718;7.072;2023-07-28T01:00:04;16.90;99.90
14236;DHT22;7202;50.718;7.072;2023-07-28T01:02:34;16.90;99.90
14236;DHT22;7202;50.718;7.072;2023-07-28T01:05:03;16.90;99.90
14236;DHT22;7202;50.718;7.072;2023-07-28T01:07:39;16.90;99.90
14236;DHT22;7202;50.718;7.072;2023-07-28T01:10:11;16.90;99.90
14236;DHT22;7202;50.718;7.072;2023-07-28T01:12:41;17.00;99.90
14236;DHT22;7202;50.718;7.072;2023-07-28T01:15:10;16.90;99.90
14236;DHT22;7202;50.718;7.072;2023-07-28T01:17:38;16.90;99.90
14236;DHT22;7202;50.718;7.072;2023-07-28T01:20:07;16.90;99.90
14236;DHT22;7202;50.718;7.072;2023-07-28T01:23:05;17.00;99.90
14236;DHT22;7202;50.718;7.072;2023-07-28T01:25:52;17.00;99.90
14236;DHT22;7202;50.718;7.072;2023-07-28T01:28:25;16.90;99.90
14236;DHT22;7202;50.718;7.072;2023-07-28T01:30:54;17.00;99.90
14236;DHT22;7202;50.718;7.072;2023-07-28T01:33:23;17.00;99.90
14236;DHT22;7202;50.718;7.072;2023-07-28T01:35:51;17.00;99.90
14236;DHT22;7202;50.718;7.072;2023-07-28T01:38:20;17.00;99.90
14236;DHT22;7202;50.718;7.072;2023-07-28T01:40:49;17.00;99.90
14236;DHT22;7202;50.718;7.072;2023-07-28T01:43:17;17.00;99.90
14236;DHT22;7202;50.718;7.072;2023-07-28T01:45:47;17.00;99.90
14236;DHT22;7202;50.718;7.072;2023-07-28T01:48:16;17.00;99.90
14236;DHT22;7202;50.718;7.072;2023-07-28T01:50:44;17.00;99.90
14236;DHT22;7202;50.718;7.072;2023-07-28T01:53:13;17.00;99.90
14236;DHT22;7202;50.718;7.072;2023-07-28T01:55:42;17.00;99.90
14236;DHT22;7202;50.718;7.072;2023-07-28T01:58:10;17.00;99.90
14236;DHT22;7202;50.718;7.072;2023-07-28T02:00:39;17.00;99.90
14236;DHT22;7202;50.718;7.072;2023-07-28T02:03:09;17.00;99.90
14236;DHT22;7202;50.718;7.072;2023-07-28T02:05:37;17.00;99.90
14236;DHT22;7202;50.718;7.072;2023-07-28T02:08:06;17.10;99.90
14236;DHT22;7202;50.718;7.072;2023-07-28T02:10:34;17.00;99.90
14236;DHT22;7202;50.718;7.072;2023-07-28T02:13:03;17.00;99.90
14236;DHT22;7202;50.718;7.072;2023-07-28T02:15:31;17.00;99.90
14236;DHT22;7202;50.718;7.072;2023-07-28T02:18:00;17.00;99.90
14236;DHT22;7202;50.718;7.072;2023-07-28T02:20:30;17.00;99.90
14236;DHT22;7202;50.718;7.072;2023-07-28T02:23:00;17.00;99.90
14236;DHT22;7202;50.718;7.072;2023-07-28T02:25:29;17.10;99.90
14236;DHT22;7202;50.718;7.072;2023-07-28T02:27:57;17.10;99.90
14236;DHT22;7202;50.718;7.072;2023-07-28T02:30:26;17.10;99.90
14236;DHT22;7202;50.718;7.072;2023-07-28T02:32:55;17.10;99.90
14236;DHT22;7202;50.718;7.072;2023-07-28T02:35:24;17.10;99.90
14236;DHT22;7202;50.718;7.072;2023-07-28T02:37:54;17.00;99.90
14236;DHT22;7202;50.718;7.072;2023-07-28T02:40:22;17.00;99.90
14236;DHT22;7202;50.718;7.072;2023-07-28T02:42:51;17.00;99.90
14236;DHT22;7202;50.718;7.072;2023-07-28T02:45:20;17.00;99.90
14236;DHT22;7202;50.718;7.072;2023-07-28T02:47:49;17.00;99.90
14236;DHT22;7202;50.718;7.072;2023-07-28T02:50:18;17.00;99.90
14236;DHT22;7202;50.718;7.072;2023-07-28T02:52:46;17.00;99.90
14236;DHT22;7202;50.718;7.072;2023-07-28T02:55:17;17.00;99.90
14236;DHT22;7202;50.718;7.072;2023-07-28T02:57:45;17.00;99.90
14236;DHT22;7202;50.718;7.072;2023-07-28T03:00:14;17.00;99.90
14236;DHT22;7202;50.718;7.072;2023-07-28T03:02:43;17.00;99.90
14236;DHT22;7202;50.718;7.072;2023-07-28T03:05:11;17.00;99.90
14236;DHT22;7202;50.718;7.072;2023-07-28T03:08:00;17.00;99.90
14236;DHT22;7202;50.718;7.072;2023-07-28T03:10:30;17.00;99.90
14236;DHT22;7202;50.718;7.072;2023-07-28T03:12:59;17.10;99.90
14236;DHT22;7202;50.718;7.072;2023-07-28T03:15:28;17.10;99.90
14236;DHT22;7202;50.718;7.072;2023-07-28T03:17:57;17.10;99.90
14236;DHT22;7202;50.718;7.072;2023-07-28T03:20:25;17.00;99.90
14236;DHT22;7202;50.718;7.072;2023-07-28T03:22:54;17.00;99.90
14236;DHT22;7202;50.718;7.072;2023-07-28T03:25:22;17.10;99.90
14236;DHT22;7202;50.718;7.072;2023-07-28T03:27:53;17.10;99.90
14236;DHT22;7202;50.718;7.072;2023-07-28T03:30:22;17.10;99.90
14236;DHT22;7202;50.718;7.072;2023-07-28T03:32:51;17.10;99.90
14236;DHT22;7202;50.718;7.072;2023-07-28T03:35:20;17.10;99.90
14236;DHT22;7202;50.718;7.072;2023-07-28T03:37:57;17.10;99.90
14236;DHT22;7202;50.718;7.072;2023-07-28T03:40:26;17.10;99.90
14236;DHT22;7202;50.718;7.072;2023-07-28T03:42:57;17.10;99.90
14236;DHT22;7202;50.718;7.072;2023-07-28T03:45:26;17.10;99.90
14236;DHT22;7202;50.718;7.072;2023-07-28T03:47:54;17.10;99.90
14236;DHT22;7202;50.718;7.072;2023-07-28T03:50:23;17.10;99.90
14236;DHT22;7202;50.718;7.072;2023-07-28T03:52:53;17.10;99.90
14236;DHT22;7202;50.718;7.072;2023-07-28T03:55:22;17.10;99.90
14236;DHT22;7202;50.718;7.072;2023-07-28T03:57:51;17.10;99.90
14236;DHT22;7202;50.718;7.072;2023-07-28T04:00:21;17.10;99.90
14236;DHT22;7202;50.718;7.072;2023-07-28T04:02:50;17.10;99.90
14236;DHT22;7202;50.718;7.072;2023-07-28T04:05:18;17.10;99.90
14236;DHT22;7202;50.718;7.072;2023-07-28T04:07:47;17.10;99.90
14236;DHT22;7202;50.718;7.072;2023-07-28T04:10:15;17.10;99.90
14236;DHT22;7202;50.718;7.072;2023-07-28T04:12:44;17.10;99.90
14236;DHT22;7202;50.718;7.072;2023-07-28T04:15:13;17.20;99.90
14236;DHT22;7202;50.718;7.072;2023-07-28T04:17:43;17.20;99.90
14236;DHT22;7202;50.718;7.072;2023-07-28T04:20:12;17.20;99.90
14236;DHT22;7202;50.718;7.072;2023-07-28T04:22:40;17.20;99.90
14236;DHT22;7202;50.718;7.072;2023-07-28T04:25:10;17.20;99.90
14236;DHT22;7202;50.718;7.072;2023-07-28T04:27:43;17.20;99.90
14236;DHT22;7202;50.718;7.072;2023-07-28T04:30:11;17.20;99.90
14236;DHT22;7202;50.718;7.072;2023-07-28T04:32:40;17.20;99.90
14236;DHT22;7202;50.718;7.072;2023-07-28T04:35:18;17.20;99.90
14236;DHT22;7202;50.718;7.072;2023-07-28T04:38:02;17.20;99.90
14236;DHT22;7202;50.718;7.072;2023-07-28T04:40:41;17.20;99.90
14236;DHT22;7202;50.718;7.072;2023-07-28T04:43:11;17.20;99.90
14236;DHT22;7202;50.718;7.072;2023-07-28T04:45:46;17.20;99.90
14236;DHT22;7202;50.718;7.072;2023-07-28T04:48:18;17.20;99.90
14236;DHT22;7202;50.718;7.072;2023-07-28T04:50:48;17.30;99.90
14236;DHT22;7202;50.718;7.072;2023-07-28T04:53:35;17.30;99.90
14236;DHT22;7202;50.718;7.072;2023-07-28T04:56:11;17.30;99.90
14236;DHT22;7202;50.718;7.072;2023-07-28T04:58:39;17.30;99.90
14236;DHT22;7202;50.718;7.072;2023-07-28T05:01:08;17.30;99.90
14236;DHT22;7202;50.718;7.072;2023-07-28T05:03:38;17.50;99.90
14236;DHT22;7202;50.718;7.072;2023-07-28T05:06:22;17.40;99.90
14236;DHT22;7202;50.718;7.072;2023-07-28T05:08:51;17.40;99.90
14236;DHT22;7202;50.718;7.072;2023-07-28T05:11:26;17.40;99.90
14236;DHT22;7202;50.718;7.072;2023-07-28T05:13:54;17.40;99.90
14236;DHT22;7202;50.718;7.072;2023-07-28T05:16:23;17.50;99.90
14236;DHT22;7202;50.718;7.072;2023-07-28T05:19:01;17.50;99.90
14236;DHT22;7202;50.718;7.072;2023-07-28T05:21:40;17.50;99.90
14236;DHT22;7202;50.718;7.072;2023-07-28T05:24:11;17.50;99.90
14236;DHT22;7202;50.718;7.072;2023-07-28T05:26:40;17.50;99.90
14236;DHT22;7202;50.718;7.072;2023-07-28T05:29:09;17.60;99.90
14236;DHT22;7202;50.718;7.072;2023-07-28T05:31:38;17.60;99.90
14236;DHT22;7202;50.718;7.072;2023-07-28T05:34:16;17.70;99.90
14236;DHT22;7202;50.718;7.072;2023-07-28T05:36:46;17.60;99.90
14236;DHT22;7202;50.718;7.072;2023-07-28T05:39:14;17.60;99.90
14236;DHT22;7202;50.718;7.072;2023-07-28T05:41:45;17.60;99.90
14236;DHT22;7202;50.718;7.072;2023-07-28T05:44:14;17.70;99.90
14236;DHT22;7202;50.718;7.072;2023-07-28T05:46:43;17.70;99.90
14236;DHT22;7202;50.718;7.072;2023-07-28T05:49:13;17.70;99.90
14236;DHT22;7202;50.718;7.072;2023-07-28T05:51:41;17.70;99.90
14236;DHT22;7202;50.718;7.072;2023-07-28T05:54:14;17.70;99.90
14236;DHT22;7202;50.718;7.072;2023-07-28T05:56:43;17.70;99.90
14236;DHT22;7202;50.718;7.072;2023-07-28T05:59:12;17.80;99.90
14236;DHT22;7202;50.718;7.072;2023-07-28T06:01:41;17.80;99.90
14236;DHT22;7202;50.718;7.072;2023-07-28T06:04:28;17.80;99.90
14236;DHT22;7202;50.718;7.072;2023-07-28T06:06:59;17.80;99.90
14236;DHT22;7202;50.718;7.072;2023-07-28T06:09:29;17.90;99.90
14236;DHT22;7202;50.718;7.072;2023-07-28T06:11:57;17.90;99.90
14236;DHT22;7202;50.718;7.072;2023-07-28T06:14:27;17.90;99.90
14236;DHT22;7202;50.718;7.072;2023-07-28T06:16:57;18.00;99.90
14236;DHT22;7202;50.718;7.072;2023-07-28T06:19:29;18.00;99.90
14236;DHT22;7202;50.718;7.072;2023-07-28T06:21:58;18.10;99.90
14236;DHT22;7202;50.718;7.072;2023-07-28T06:24:27;18.10;99.90
14236;DHT22;7202;50.718;7.072;2023-07-28T06:26:59;18.10;99.90
14236;DHT22;7202;50.718;7.072;2023-07-28T06:29:30;18.10;99.90
14236;DHT22;7202;50.718;7.072;2023-07-28T06:31:59;18.10;99.90
14236;DHT22;7202;50.718;7.072;2023-07-28T06:34:28;18.10;99.90
14236;DHT22;7202;50.718;7.072;2023-07-28T06:36:56;18.10;99.90
14236;DHT22;7202;50.718;7.072;2023-07-28T06:39:25;18.10;99.90
14236;DHT22;7202;50.718;7.072;2023-07-28T06:41:54;18.10;99.90
14236;DHT22;7202;50.718;7.072;2023-07-28T06:44:26;18.20;99.90
14236;DHT22;7202;50.718;7.072;2023-07-28T06:46:54;18.20;99.90
14236;DHT22;7202;50.718;7.072;2023-07-28T06:49:23;18.30;99.90
14236;DHT22;7202;50.718;7.072;2023-07-28T06:51:51;18.30;99.90
14236;DHT22;7202;50.718;7.072;2023-07-28T06:54:20;18.40;99.90
14236;DHT22;7202;50.718;7.072;2023-07-28T06:56:48;18.40;99.90
14236;DHT22;7202;50.718;7.072;2023-07-28T06:59:17;18.40;99.90
14236;DHT22;7202;50.718;7.072;2023-07-28T07:01:50;18.50;99.90
14236;DHT22;7202;50.718;7.072;2023-07-28T07:04:19;18.60;99.90
14236;DHT22;7202;50.718;7.072;2023-07-28T07:06:48;18.60;99.90
14236;DHT22;7202;50.718;7.072;2023-07-28T07:09:16;18.60;99.90
14236;DHT22;7202;50.718;7.072;2023-07-28T07:11:45;18.70;99.90
14236;DHT22;7202;50.718;7.072;2023-07-28T07:14:14;18.70;99.90
14236;DHT22;7202;50.718;7.072;2023-07-28T07:16:42;18.80;99.90
14236;DHT22;7202;50.718;7.072;2023-07-28T07:19:12;18.90;99.90
14236;DHT22;7202;50.718;7.072;2023-07-28T07:21:42;18.80;99.90
14236;DHT22;7202;50.718;7.072;2023-07-28T07:24:12;18.90;99.90
14236;DHT22;7202;50.718;7.072;2023-07-28T07:26:41;18.90;99.90
14236;DHT22;7202;50.718;7.072;2023-07-28T07:29:10;19.00;99.90
14236;DHT22;7202;50.718;7.072;2023-07-28T07:31:39;19.00;99.90
14236;DHT22;7202;50.718;7.072;2023-07-28T07:34:08;19.00;99.90
14236;DHT22;7202;50.718;7.072;2023-07-28T07:36:38;19.10;99.90
14236;DHT22;7202;50.718;7.072;2023-07-28T07:39:06;19.10;99.90
14236;DHT22;7202;50.718;7.072;2023-07-28T07:41:35;19.20;99.90
14236;DHT22;7202;50.718;7.072;2023-07-28T07:44:04;19.10;99.90
14236;DHT22;7202;50.718;7.072;2023-07-28T07:46:32;19.20;99.90
14236;DHT22;7202;50.718;7.072;2023-07-28T07:49:01;19.20;99.90
14236;DHT22;7202;50.718;7.072;2023-07-28T07:51:32;19.30;99.90
14236;DHT22;7202;50.718;7.072;2023-07-28T07:54:03;19.30;99.90
14236;DHT22;7202;50.718;7.072;2023-07-28T07:56:32;19.20;99.90
14236;DHT22;7202;50.718;7.072;2023-07-28T07:59:00;19.20;99.90
14236;DHT22;7202;50.718;7.072;2023-07-28T08:01:29;19.30;99.90
14236;DHT22;7202;50.718;7.072;2023-07-28T08:03:58;19.20;99.90
14236;DHT22;7202;50.718;7.072;2023-07-28T08:06:26;19.20;99.90
14236;DHT22;7202;50.718;7.072;2023-07-28T08:08:56;19.20;99.90
14236;DHT22;7202;50.718;7.072;2023-07-28T08:11:28;19.20;99.90
14236;DHT22;7202;50.718;7.072;2023-07-28T08:13:56;19.20;99.90
14236;DHT22;7202;50.718;7.072;2023-07-28T08:16:25;19.20;99.90
14236;DHT22;7202;50.718;7.072;2023-07-28T08:18:54;19.20;99.90
14236;DHT22;7202;50.718;7.072;2023-07-28T08:21:22;19.20;99.90
14236;DHT22;7202;50.718;7.072;2023-07-28T08:23:51;19.20;99.90
14236;DHT22;7202;50.718;7.072;2023-07-28T08:26:20;19.30;99.90
14236;DHT22;7202;50.718;7.072;2023-07-28T08:28:50;19.30;99.90
14236;DHT22;7202;50.718;7.072;2023-07-28T08:31:18;19.30;99.90
14236;DHT22;7202;50.718;7.072;2023-07-28T08:33:47;19.30;99.90
14236;DHT22;7202;50.718;7.072;2023-07-28T08:36:16;19.40;99.90
14236;DHT22;7202;50.718;7.072;2023-07-28T08:38:44;19.50;99.90
14236;DHT22;7202;50.718;7.072;2023-07-28T08:45:57;19.60;99.90
14236;DHT22;7202;50.718;7.072;2023-07-28T08:48:25;19.80;99.90
14236;DHT22;7202;50.718;7.072;2023-07-28T08:50:55;19.80;99.90
14236;DHT22;7202;50.718;7.072;2023-07-28T08:53:24;19.90;99.90
14236;DHT22;7202;50.718;7.072;2023-07-28T08:55:52;19.90;99.90
14236;DHT22;7202;50.718;7.072;2023-07-28T08:58:22;20.00;99.90
14236;DHT22;7202;50.718;7.072;2023-07-28T09:00:52;20.10;99.90
14236;DHT22;7202;50.718;7.072;2023-07-28T09:03:23;20.10;99.90
14236;DHT22;7202;50.718;7.072;2023-07-28T09:05:59;20.20;99.90
14236;DHT22;7202;50.718;7.072;2023-07-28T09:08:30;20.20;99.90
14236;DHT22;7202;50.718;7.072;2023-07-28T09:11:02;20.30;99.90
14236;DHT22;7202;50.718;7.072;2023-07-28T09:13:36;20.30;99.90
14236;DHT22;7202;50.718;7.072;2023-07-28T09:16:16;20.30;99.90
14236;DHT22;7202;50.718;7.072;2023-07-28T09:18:46;20.30;99.90
14236;DHT22;7202;50.718;7.072;2023-07-28T09:21:19;20.30;99.90
14236;DHT22;7202;50.718;7.072;2023-07-28T09:23:49;20.30;99.90
14236;DHT22;7202;50.718;7.072;2023-07-28T09:26:18;20.30;99.90
14236;DHT22;7202;50.718;7.072;2023-07-28T09:28:47;20.30;99.90
14236;DHT22;7202;50.718;7.072;2023-07-28T09:31:15;20.30;99.90
14236;DHT22;7202;50.718;7.072;2023-07-28T09:33:47;20.40;99.90
14236;DHT22;7202;50.718;7.072;2023-07-28T09:36:15;20.40;99.90
14236;DHT22;7202;50.718;7.072;2023-07-28T09:38:45;20.40;99.90
14236;DHT22;7202;50.718;7.072;2023-07-28T09:41:14;20.50;99.90
14236;DHT22;7202;50.718;7.072;2023-07-28T09:43:43;20.50;99.90
14236;DHT22;7202;50.718;7.072;2023-07-28T09:46:13;20.50;99.90
14236;DHT22;7202;50.718;7.072;2023-07-28T09:48:45;20.50;99.90
14236;DHT22;7202;50.718;7.072;2023-07-28T09:51:18;20.60;99.90
14236;DHT22;7202;50.718;7.072;2023-07-28T09:53:52;20.50;99.90
14236;DHT22;7202;50.718;7.072;2023-07-28T09:56:28;20.50;99.90
14236;DHT22;7202;50.718;7.072;2023-07-28T09:58:58;20.50;99.90
14236;DHT22;7202;50.718;7.072;2023-07-28T10:01:27;20.50;99.90
14236;DHT22;7202;50.718;7.072;2023-07-28T10:03:56;20.50;99.90
14236;DHT22;7202;50.718;7.072;2023-07-28T10:06:28;20.50;99.90
14236;DHT22;7202;50.718;7.072;2023-07-28T10:08:58;20.50;99.90
14236;DHT22;7202;50.718;7.072;2023-07-28T10:11:27;20.50;99.90
14236;DHT22;7202;50.718;7.072;2023-07-28T10:13:56;20.50;99.90
14236;DHT22;7202;50.718;7.072;2023-07-28T10:16:36;20.50;99.90
14236;DHT22;7202;50.718;7.072;2023-07-28T10:19:06;20.60;99.90
14236;DHT22;7202;50.718;7.072;2023-07-28T10:21:40;20.70;99.90
14236;DHT22;7202;50.718;7.072;2023-07-28T10:24:10;20.80;99.90
14236;DHT22;7202;50.718;7.072;2023-07-28T10:26:39;21.00;99.90
14236;DHT22;7202;50.718;7.072;2023-07-28T10:29:10;21.10;99.90
14236;DHT22;7202;50.718;7.072;2023-07-28T10:31:53;21.10;99.90
14236;DHT22;7202;50.718;7.072;2023-07-28T10:34:23;21.30;99.90
14236;DHT22;7202;50.718;7.072;2023-07-28T10:41:17;21.50;99.90
14236;DHT22;7202;50.718;7.072;2023-07-28T10:43:46;21.50;99.90
14236;DHT22;7202;50.718;7.072;2023-07-28T10:46:16;21.60;99.90
14236;DHT22;7202;50.718;7.072;2023-07-28T10:48:47;21.60;99.90
14236;DHT22;7202;50.718;7.072;2023-07-28T10:51:21;21.60;99.90
14236;DHT22;7202;50.718;7.072;2023-07-28T10:53:55;21.60;99.90
14236;DHT22;7202;50.718;7.072;2023-07-28T10:56:26;21.60;99.90
14236;DHT22;7202;50.718;7.072;2023-07-28T10:58:56;21.50;99.90
14236;DHT22;7202;50.718;7.072;2023-07-28T11:01:31;21.50;99.90
14236;DHT22;7202;50.718;7.072;2023-07-28T11:06:38;21.40;99.90
14236;DHT22;7202;50.718;7.072;2023-07-28T11:09:08;21.40;99.90
14236;DHT22;7202;50.718;7.072;2023-07-28T11:11:40;21.40;99.90
14236;DHT22;7202;50.718;7.072;2023-07-28T11:14:15;21.30;99.90
14236;DHT22;7202;50.718;7.072;2023-07-28T11:16:46;21.30;99.90
14236;DHT22;7202;50.718;7.072;2023-07-28T11:19:16;21.20;99.90
14236;DHT22;7202;50.718;7.072;2023-07-28T11:21:53;21.20;99.90
14236;DHT22;7202;50.718;7.072;2023-07-28T11:24:22;21.20;99.90
14236;DHT22;7202;50.718;7.072;2023-07-28T11:26:53;21.30;99.90
14236;DHT22;7202;50.718;7.072;2023-07-28T11:29:23;21.30;99.90
14236;DHT22;7202;50.718;7.072;2023-07-28T11:31:52;21.40;99.90
14236;DHT22;7202;50.718;7.072;2023-07-28T11:34:21;21.40;99.90
14236;DHT22;7202;50.718;7.072;2023-07-28T11:36:49;21.50;99.90
14236;DHT22;7202;50.718;7.072;2023-07-28T11:39:19;21.50;99.90
14236;DHT22;7202;50.718;7.072;2023-07-28T11:41:49;21.50;99.90
14236;DHT22;7202;50.718;7.072;2023-07-28T11:44:23;21.60;99.90
14236;DHT22;7202;50.718;7.072;2023-07-28T11:46:52;21.60;99.90
14236;DHT22;7202;50.718;7.072;2023-07-28T11:49:23;21.60;99.90
14236;DHT22;7202;50.718;7.072;2023-07-28T11:51:53;21.50;99.90
14236;DHT22;7202;50.718;7.072;2023-07-28T11:54:23;21.50;99.90
14236;DHT22;7202;50.718;7.072;2023-07-28T11:56:54;21.60;99.90
14236;DHT22;7202;50.718;7.072;2023-07-28T11:59:25;21.50;99.90
14236;DHT22;7202;50.718;7.072;2023-07-28T12:01:55;21.50;99.90
14236;DHT22;7202;50.718;7.072;2023-07-28T12:04:28;21.50;99.90
14236;DHT22;7202;50.718;7.072;2023-07-28T12:07:04;21.50;99.90
14236;DHT22;7202;50.718;7.072;2023-07-28T12:09:51;21.50;99.90
14236;DHT22;7202;50.718;7.072;2023-07-28T12:12:31;21.50;99.90
14236;DHT22;7202;50.718;7.072;2023-07-28T12:15:19;21.60;99.90
14236;DHT22;7202;50.718;7.072;2023-07-28T12:18:03;21.70;99.90
14236;DHT22;7202;50.718;7.072;2023-07-28T12:20:39;21.80;99.90
14236;DHT22;7202;50.718;7.072;2023-07-28T12:23:09;21.90;99.90
14236;DHT22;7202;50.718;7.072;2023-07-28T12:25:40;22.00;99.90
14236;DHT22;7202;50.718;7.072;2023-07-28T12:28:09;22.10;99.90
14236;DHT22;7202;50.718;7.072;2023-07-28T12:30:42;22.10;99.90
14236;DHT22;7202;50.718;7.072;2023-07-28T12:33:11;22.20;99.90
14236;DHT22;7202;50.718;7.072;2023-07-28T12:35:43;22.20;99.90
14236;DHT22;7202;50.718;7.072;2023-07-28T12:38:15;22.20;99.90
14236;DHT22;7202;50.718;7.072;2023-07-28T12:40:46;22.30;99.90
14236;DHT22;7202;50.718;7.072;2023-07-28T12:43:18;22.30;99.90
14236;DHT22;7202;50.718;7.072;2023-07-28T12:45:51;22.40;99.90
14236;DHT22;7202;50.718;7.072;2023-07-28T12:48:23;22.40;99.90
14236;DHT22;7202;50.718;7.072;2023-07-28T12:50:51;22.50;99.90
14236;DHT22;7202;50.718;7.072;2023-07-28T12:53:23;22.60;99.90
14236;DHT22;7202;50.718;7.072;2023-07-28T12:55:52;22.60;99.90
14236;DHT22;7202;50.718;7.072;2023-07-28T12:58:23;22.70;99.90
14236;DHT22;7202;50.718;7.072;2023-07-28T13:00:57;22.70;99.90
14236;DHT22;7202;50.718;7.072;2023-07-28T13:03:29;22.80;99.90
14236;DHT22;7202;50.718;7.072;2023-07-28T13:05:58;23.00;99.90
14236;DHT22;7202;50.718;7.072;2023-07-28T13:08:27;23.10;99.90
14236;DHT22;7202;50.718;7.072;2023-07-28T13:10:58;23.20;99.90
14236;DHT22;7202;50.718;7.072;2023-07-28T13:13:30;23.20;99.90
14236;DHT22;7202;50.718;7.072;2023-07-28T13:16:01;23.20;99.90
14236;DHT22;7202;50.718;7.072;2023-07-28T13:18:30;23.10;99.90
14236;DHT22;7202;50.718;7.072;2023-07-28T13:20:59;23.10;99.90
14236;DHT22;7202;50.718;7.072;2023-07-28T13:23:28;23.00;99.90
14236;DHT22;7202;50.718;7.072;2023-07-28T13:25:57;23.00;99.90
14236;DHT22;7202;50.718;7.072;2023-07-28T13:28:26;23.00;99.90
14236;DHT22;7202;50.718;7.072;2023-07-28T13:30:54;23.00;99.90
14236;DHT22;7202;50.718;7.072;2023-07-28T13:33:24;23.00;99.90
14236;DHT22;7202;50.718;7.072;2023-07-28T13:35:54;23.10;99.90
14236;DHT22;7202;50.718;7.072;2023-07-28T13:38:22;23.00;99.90
14236;DHT22;7202;50.718;7.072;2023-07-28T13:40:51;23.10;99.90
14236;DHT22;7202;50.718;7.072;2023-07-28T13:43:20;23.10;99.90
14236;DHT22;7202;50.718;7.072;2023-07-28T13:45:48;23.00;99.90
14236;DHT22;7202;50.718;7.072;2023-07-28T13:48:17;23.00;99.90
14236;DHT22;7202;50.718;7.072;2023-07-28T13:50:50;22.80;99.90
14236;DHT22;7202;50.718;7.072;2023-07-28T13:53:22;22.60;99.90
14236;DHT22;7202;50.718;7.072;2023-07-28T13:55:54;22.30;99.90
14236;DHT22;7202;50.718;7.072;2023-07-28T13:58:24;21.90;99.90
14236;DHT22;7202;50.718;7.072;2023-07-28T14:00:53;21.60;99.90
14236;DHT22;7202;50.718;7.072;2023-07-28T14:03:22;21.30;99.90
14236;DHT22;7202;50.718;7.072;2023-07-28T14:05:52;21.10;99.90
14236;DHT22;7202;50.718;7.072;2023-07-28T14:08:20;20.90;99.90
14236;DHT22;7202;50.718;7.072;2023-07-28T14:10:49;20.80;99.90
14236;DHT22;7202;50.718;7.072;2023-07-28T14:13:19;20.60;99.90
14236;DHT22;7202;50.718;7.072;2023-07-28T14:15:47;20.50;99.90
14236;DHT22;7202;50.718;7.072;2023-07-28T14:18:16;20.50;99.90
14236;DHT22;7202;50.718;7.072;2023-07-28T14:20:45;20.40;99.90
14236;DHT22;7202;50.718;7.072;2023-07-28T14:23:25;20.40;99.90
14236;DHT22;7202;50.718;7.072;2023-07-28T14:25:54;20.40;99.90
14236;DHT22;7202;50.718;7.072;2023-07-28T14:28:23;20.30;99.90
14236;DHT22;7202;50.718;7.072;2023-07-28T14:30:51;20.30;99.90
14236;DHT22;7202;50.718;7.072;2023-07-28T14:33:20;20.30;99.90
14236;DHT22;7202;50.718;7.072;2023-07-28T14:35:49;20.30;99.90
14236;DHT22;7202;50.718;7.072;2023-07-28T14:38:18;20.30;99.90
14236;DHT22;7202;50.718;7.072;2023-07-28T14:40:48;20.40;99.90
14236;DHT22;7202;50.718;7.072;2023-07-28T14:43:19;20.60;99.90
14236;DHT22;7202;50.718;7.072;2023-07-28T14:45:49;20.60;99.90
14236;DHT22;7202;50.718;7.072;2023-07-28T14:48:18;20.90;99.90
14236;DHT22;7202;50.718;7.072;2023-07-28T14:50:47;21.00;99.90
14236;DHT22;7202;50.718;7.072;2023-07-28T14:53:32;21.10;99.90
14236;DHT22;7202;50.718;7.072;2023-07-28T14:56:04;21.10;99.90
14236;DHT22;7202;50.718;7.072;2023-07-28T14:58:33;21.20;99.90
14236;DHT22;7202;50.718;7.072;2023-07-28T15:01:02;21.30;99.90
14236;DHT22;7202;50.718;7.072;2023-07-28T15:03:32;21.30;99.90
14236;DHT22;7202;50.718;7.072;2023-07-28T15:06:01;21.30;99.90
14236;DHT22;7202;50.718;7.072;2023-07-28T15:08:30;21.30;99.90
14236;DHT22;7202;50.718;7.072;2023-07-28T15:10:59;21.30;99.90
14236;DHT22;7202;50.718;7.072;2023-07-28T15:13:29;21.30;99.90
14236;DHT22;7202;50.718;7.072;2023-07-28T15:15:58;21.20;99.90
14236;DHT22;7202;50.718;7.072;2023-07-28T15:18:26;21.20;99.90
14236;DHT22;7202;50.718;7.072;2023-07-28T15:20:55;21.20;99.90
14236;DHT22;7202;50.718;7.072;2023-07-28T15:23:26;21.20;99.90
14236;DHT22;7202;50.718;7.072;2023-07-28T15:25:55;21.30;99.90
14236;DHT22;7202;50.718;7.072;2023-07-28T15:28:25;21.30;99.90
14236;DHT22;7202;50.718;7.072;2023-07-28T15:30:55;21.40;99.90
14236;DHT22;7202;50.718;7.072;2023-07-28T15:33:24;21.50;99.90
14236;DHT22;7202;50.718;7.072;2023-07-28T15:35:56;21.50;99.90
14236;DHT22;7202;50.718;7.072;2023-07-28T15:38:25;21.50;99.90
14236;DHT22;7202;50.718;7.072;2023-07-28T15:40:54;21.50;99.90
14236;DHT22;7202;50.718;7.072;2023-07-28T15:43:25;21.50;99.90
14236;DHT22;7202;50.718;7.072;2023-07-28T15:45:55;21.50;99.90
14236;DHT22;7202;50.718;7.072;2023-07-28T15:48:24;21.50;99.90
14236;DHT22;7202;50.718;7.072;2023-07-28T15:50:52;21.50;99.90
14236;DHT22;7202;50.718;7.072;2023-07-28T15:53:21;21.50;99.90
14236;DHT22;7202;50.718;7.072;2023-07-28T15:55:50;21.50;99.90
14236;DHT22;7202;50.718;7.072;2023-07-28T15:58:19;21.50;99.90
14236;DHT22;7202;50.718;7.072;2023-07-28T16:00:47;21.50;99.90
14236;DHT22;7202;50.718;7.072;2023-07-28T16:03:17;21.50;99.90
14236;DHT22;7202;50.718;7.072;2023-07-28T16:05:46;21.60;99.90
14236;DHT22;7202;50.718;7.072;2023-07-28T16:08:15;21.60;99.90
14236;DHT22;7202;50.718;7.072;2023-07-28T16:10:43;21.70;99.90
14236;DHT22;7202;50.718;7.072;2023-07-28T16:13:12;21.70;99.90
14236;DHT22;7202;50.718;7.072;2023-07-28T16:15:40;21.80;99.90